sensor_id;sensor_type;location;lat;lon;timestamp;temperature;humidity
11569;DHT22;5840;46.894;15.542;2022-07-10T00:01:03;18.00;96.70
11569;DHT22;5840;46.894;15.542;2022-07-10T00:03:30;18.00;97.70
11569;DHT22;5840;46.894;15.542;2022-07-10T00:05:58;18.00;99.30
11569;DHT22;5840;46.894;15.542;2022-07-10T00:08:24;17.90;99.30
11569;DHT22;5840;46.894;15.542;2022-07-10T00:10:51;17.70;99.10
11569;DHT22;5840;46.894;15.542;2022-07-10T00:13:20;17.60;99.50
11569;DHT22;5840;46.894;15.542;2022-07-10T00:15:47;17.60;99.70
11569;DHT22;5840;46.894;15.542;2022-07-10T00:18:14;17.50;99.90
11569;DHT22;5840;46.894;15.542;2022-07-10T00:20:40;17.40;99.90
11569;DHT22;5840;46.894;15.542;2022-07-10T00:23:07;17.40;99.90
11569;DHT22;5840;46.894;15.542;2022-07-10T00:25:34;17.30;99.90
11569;DHT22;5840;46.894;15.542;2022-07-10T00:28:01;17.30;99.90
11569;DHT22;5840;46.894;15.542;2022-07-10T00:30:31;17.30;99.90
11569;DHT22;5840;46.894;15.542;2022-07-10T00:32:58;17.30;99.90
11569;DHT22;5840;46.894;15.542;2022-07-10T00:35:25;17.20;99.90
11569;DHT22;5840;46.894;15.542;2022-07-10T00:37:52;17.30;99.90
11569;DHT22;5840;46.894;15.542;2022-07-10T00:40:19;17.30;99.90
11569;DHT22;5840;46.894;15.542;2022-07-10T00:42:46;17.30;99.90
11569;DHT22;5840;46.894;15.542;2022-07-10T00:45:13;17.30;99.90
11569;DHT22;5840;46.894;15.542;2022-07-10T00:47:42;17.30;99.90
11569;DHT22;5840;46.894;15.542;2022-07-10T00:50:09;17.30;99.90
11569;DHT22;5840;46.894;15.542;2022-07-10T00:52:38;17.30;99.90
11569;DHT22;5840;46.894;15.542;2022-07-10T00:55:06;17.30;99.90
11569;DHT22;5840;46.894;15.542;2022-07-10T00:57:35;17.30;99.90
11569;DHT22;5840;46.894;15.542;2022-07-10T01:00:04;17.20;99.90
11569;DHT22;5840;46.894;15.542;2022-07-10T01:02:31;17.30;99.90
11569;DHT22;5840;46.894;15.542;2022-07-10T01:04:59;17.20;99.90
11569;DHT22;5840;46.894;15.542;2022-07-10T01:07:26;17.20;99.90
11569;DHT22;5840;46.894;15.542;2022-07-10T01:09:53;17.20;99.90
11569;DHT22;5840;46.894;15.542;2022-07-10T01:12:21;17.30;99.90
11569;DHT22;5840;46.894;15.542;2022-07-10T01:14:48;17.30;99.90
11569;DHT22;5840;46.894;15.542;2022-07-10T01:17:15;17.30;99.90
11569;DHT22;5840;46.894;15.542;2022-07-10T01:19:42;17.30;99.90
11569;DHT22;5840;46.894;15.542;2022-07-10T01:22:11;17.30;99.90
11569;DHT22;5840;46.894;15.542;2022-07-10T01:24:38;17.30;99.90
11569;DHT22;5840;46.894;15.542;2022-07-10T01:27:05;17.30;99.90
11569;DHT22;5840;46.894;15.542;2022-07-10T01:29:34;17.30;99.90
11569;DHT22;5840;46.894;15.542;2022-07-10T01:32:02;17.40;99.90
11569;DHT22;5840;46.894;15.542;2022-07-10T01:34:29;17.40;99.90
11569;DHT22;5840;46.894;15.542;2022-07-10T01:36:56;17.40;99.90
11569;DHT22;5840;46.894;15.542;2022-07-10T01:39:24;17.40;99.90
11569;DHT22;5840;46.894;15.542;2022-07-10T01:41:51;17.30;99.90
11569;DHT22;5840;46.894;15.542;2022-07-10T01:44:18;17.30;99.90
11569;DHT22;5840;46.894;15.542;2022-07-10T01:46:46;17.30;99.90
11569;DHT22;5840;46.894;15.542;2022-07-10T01:49:14;17.30;99.90
11569;DHT22;5840;46.894;15.542;2022-07-10T01:51:41;17.30;99.90
11569;DHT22;5840;46.894;15.542;2022-07-10T01:54:08;17.20;99.90
11569;DHT22;5840;46.894;15.542;2022-07-10T01:56:37;17.20;99.90
11569;DHT22;5840;46.894;15.542;2022-07-10T01:59:04;17.10;99.90
11569;DHT22;5840;46.894;15.542;2022-07-10T02:01:31;17.10;99.90
11569;DHT22;5840;46.894;15.542;2022-07-10T02:03:58;17.00;99.90
11569;DHT22;5840;46.894;15.542;2022-07-10T02:06:42;17.00;99.90
11569;DHT22;5840;46.894;15.542;2022-07-10T02:09:10;17.00;99.90
11569;DHT22;5840;46.894;15.542;2022-07-10T02:11:38;16.90;99.90
11569;DHT22;5840;46.894;15.542;2022-07-10T02:14:05;16.90;99.90
11569;DHT22;5840;46.894;15.542;2022-07-10T02:16:33;16.90;99.90
11569;DHT22;5840;46.894;15.542;2022-07-10T02:19:01;16.90;99.90
11569;DHT22;5840;46.894;15.542;2022-07-10T02:21:28;16.90;99.90
11569;DHT22;5840;46.894;15.542;2022-07-10T02:23:55;16.90;99.90
11569;DHT22;5840;46.894;15.542;2022-07-10T02:26:22;16.80;99.90
11569;DHT22;5840;46.894;15.542;2022-07-10T02:28:50;16.80;99.90
11569;DHT22;5840;46.894;15.542;2022-07-10T02:31:17;16.80;99.90
11569;DHT22;5840;46.894;15.542;2022-07-10T02:33:44;16.80;99.90
11569;DHT22;5840;46.894;15.542;2022-07-10T02:36:11;16.70;99.90
11569;DHT22;5840;46.894;15.542;2022-07-10T02:38:38;16.70;99.90
11569;DHT22;5840;46.894;15.542;2022-07-10T02:41:05;16.70;99.90
11569;DHT22;5840;46.894;15.542;2022-07-10T02:43:32;16.60;99.90
11569;DHT22;5840;46.894;15.542;2022-07-10T02:46:00;16.70;99.90
11569;DHT22;5840;46.894;15.542;2022-07-10T02:48:27;16.60;99.90
11569;DHT22;5840;46.894;15.542;2022-07-10T02:50:54;16.60;99.90
11569;DHT22;5840;46.894;15.542;2022-07-10T02:53:21;16.60;99.90
11569;DHT22;5840;46.894;15.542;2022-07-10T02:55:48;16.70;99.90
11569;DHT22;5840;46.894;15.542;2022-07-10T02:58:15;16.70;99.90
11569;DHT22;5840;46.894;15.542;2022-07-10T03:00:43;16.70;99.90
11569;DHT22;5840;46.894;15.542;2022-07-10T03:03:11;16.60;99.90
11569;DHT22;5840;46.894;15.542;2022-07-10T03:05:38;16.60;99.90
11569;DHT22;5840;46.894;15.542;2022-07-10T03:08:05;16.60;99.90
11569;DHT22;5840;46.894;15.542;2022-07-10T03:10:32;16.60;99.90
11569;DHT22;5840;46.894;15.542;2022-07-10T03:12:59;16.50;99.90
11569;DHT22;5840;46.894;15.542;2022-07-10T03:15:26;16.50;99.90
11569;DHT22;5840;46.894;15.542;2022-07-10T03:17:53;16.50;99.90
11569;DHT22;5840;46.894;15.542;2022-07-10T03:20:21;16.40;99.90
11569;DHT22;5840;46.894;15.542;2022-07-10T03:22:48;16.40;99.90
11569;DHT22;5840;46.894;15.542;2022-07-10T03:25:15;16.30;99.90
11569;DHT22;5840;46.894;15.542;2022-07-10T03:27:42;16.30;99.90
11569;DHT22;5840;46.894;15.542;2022-07-10T03:30:09;16.30;99.90
11569;DHT22;5840;46.894;15.542;2022-07-10T03:32:36;16.30;99.90
11569;DHT22;5840;46.894;15.542;2022-07-10T03:35:04;16.30;99.90
11569;DHT22;5840;46.894;15.542;2022-07-10T03:37:32;16.20;99.90
11569;DHT22;5840;46.894;15.542;2022-07-10T03:39:59;16.20;99.90
11569;DHT22;5840;46.894;15.542;2022-07-10T03:42:26;16.20;99.90
11569;DHT22;5840;46.894;15.542;2022-07-10T03:44:53;16.20;99.90
11569;DHT22;5840;46.894;15.542;2022-07-10T03:47:20;16.20;99.90
11569;DHT22;5840;46.894;15.542;2022-07-10T03:49:47;16.20;99.90
11569;DHT22;5840;46.894;15.542;2022-07-10T03:52:14;16.20;99.90
11569;DHT22;5840;46.894;15.542;2022-07-10T03:54:42;16.20;99.90
11569;DHT22;5840;46.894;15.542;2022-07-10T03:57:09;16.20;99.90
11569;DHT22;5840;46.894;15.542;2022-07-10T03:59:53;16.20;99.90
11569;DHT22;5840;46.894;15.542;2022-07-10T04:02:21;16.20;99.90
11569;DHT22;5840;46.894;15.542;2022-07-10T04:04:48;16.20;99.90
11569;DHT22;5840;46.894;15.542;2022-07-10T04:07:15;16.20;99.90
11569;DHT22;5840;46.894;15.542;2022-07-10T04:09:43;16.20;99.90
11569;DHT22;5840;46.894;15.542;2022-07-10T04:12:10;16.20;99.90
11569;DHT22;5840;46.894;15.542;2022-07-10T04:14:37;16.20;99.90
11569;DHT22;5840;46.894;15.542;2022-07-10T04:17:04;16.20;99.90
11569;DHT22;5840;46.894;15.542;2022-07-10T04:19:31;16.10;99.90
11569;DHT22;5840;46.894;15.542;2022-07-10T04:21:58;16.10;99.90
11569;DHT22;5840;46.894;15.542;2022-07-10T04:24:25;16.00;99.90
11569;DHT22;5840;46.894;15.542;2022-07-10T04:26:53;16.00;99.90
11569;DHT22;5840;46.894;15.542;2022-07-10T04:29:20;16.00;99.90
11569;DHT22;5840;46.894;15.542;2022-07-10T04:31:48;16.00;99.90
11569;DHT22;5840;46.894;15.542;2022-07-10T04:34:15;16.00;99.90
11569;DHT22;5840;46.894;15.542;2022-07-10T04:36:42;16.00;99.90
11569;DHT22;5840;46.894;15.542;2022-07-10T04:39:09;16.00;99.90
11569;DHT22;5840;46.894;15.542;2022-07-10T04:41:36;16.00;99.90
11569;DHT22;5840;46.894;15.542;2022-07-10T04:44:04;16.10;99.90
11569;DHT22;5840;46.894;15.542;2022-07-10T04:46:31;16.20;99.90
11569;DHT22;5840;46.894;15.542;2022-07-10T04:48:58;16.20;99.90
11569;DHT22;5840;46.894;15.542;2022-07-10T04:51:25;16.20;99.90
11569;DHT22;5840;46.894;15.542;2022-07-10T04:53:52;16.20;99.90
11569;DHT22;5840;46.894;15.542;2022-07-10T04:56:19;16.30;99.90
11569;DHT22;5840;46.894;15.542;2022-07-10T04:58:46;16.20;99.90
11569;DHT22;5840;46.894;15.542;2022-07-10T05:01:15;16.30;99.90
11569;DHT22;5840;46.894;15.542;2022-07-10T05:03:42;16.30;99.90
11569;DHT22;5840;46.894;15.542;2022-07-10T05:06:09;16.30;99.90
11569;DHT22;5840;46.894;15.542;2022-07-10T05:08:36;16.20;99.90
11569;DHT22;5840;46.894;15.542;2022-07-10T05:11:03;16.20;99.90
11569;DHT22;5840;46.894;15.542;2022-07-10T05:13:30;16.20;99.90
11569;DHT22;5840;46.894;15.542;2022-07-10T05:15:57;16.20;99.90
11569;DHT22;5840;46.894;15.542;2022-07-10T05:18:25;16.30;99.90
11569;DHT22;5840;46.894;15.542;2022-07-10T05:20:52;16.30;99.90
11569;DHT22;5840;46.894;15.542;2022-07-10T05:23:19;16.30;99.90
11569;DHT22;5840;46.894;15.542;2022-07-10T05:25:46;16.40;99.90
11569;DHT22;5840;46.894;15.542;2022-07-10T05:28:13;16.40;99.90
11569;DHT22;5840;46.894;15.542;2022-07-10T05:30:40;16.50;99.90
11569;DHT22;5840;46.894;15.542;2022-07-10T05:33:07;16.50;99.90
11569;DHT22;5840;46.894;15.542;2022-07-10T05:35:36;16.50;99.90
11569;DHT22;5840;46.894;15.542;2022-07-10T05:38:03;16.60;99.90
11569;DHT22;5840;46.894;15.542;2022-07-10T05:40:29;16.60;99.90
11569;DHT22;5840;46.894;15.542;2022-07-10T05:42:57;16.60;99.90
11569;DHT22;5840;46.894;15.542;2022-07-10T05:45:24;16.60;99.90
11569;DHT22;5840;46.894;15.542;2022-07-10T05:47:51;16.60;99.90
11569;DHT22;5840;46.894;15.542;2022-07-10T05:50:18;16.60;99.90
11569;DHT22;5840;46.894;15.542;2022-07-10T05:52:46;16.50;99.90
11569;DHT22;5840;46.894;15.542;2022-07-10T05:55:13;16.60;99.90
11569;DHT22;5840;46.894;15.542;2022-07-10T05:57:41;16.60;99.90
11569;DHT22;5840;46.894;15.542;2022-07-10T06:00:09;16.60;99.90
11569;DHT22;5840;46.894;15.542;2022-07-10T06:02:36;16.60;99.90
11569;DHT22;5840;46.894;15.542;2022-07-10T06:05:03;16.60;99.90
11569;DHT22;5840;46.894;15.542;2022-07-10T06:07:31;16.70;99.90
11569;DHT22;5840;46.894;15.542;2022-07-10T06:09:59;16.80;99.90
11569;DHT22;5840;46.894;15.542;2022-07-10T06:12:26;16.80;99.90
11569;DHT22;5840;46.894;15.542;2022-07-10T06:14:53;16.90;99.90
11569;DHT22;5840;46.894;15.542;2022-07-10T06:17:20;16.90;99.90
11569;DHT22;5840;46.894;15.542;2022-07-10T06:19:47;17.00;99.90
11569;DHT22;5840;46.894;15.542;2022-07-10T06:22:14;17.00;99.90
11569;DHT22;5840;46.894;15.542;2022-07-10T06:25:02;17.00;99.90
11569;DHT22;5840;46.894;15.542;2022-07-10T06:27:30;17.00;99.90
11569;DHT22;5840;46.894;15.542;2022-07-10T06:29:57;17.00;99.90
11569;DHT22;5840;46.894;15.542;2022-07-10T06:32:24;17.00;99.90
11569;DHT22;5840;46.894;15.542;2022-07-10T06:34:52;17.00;99.90
11569;DHT22;5840;46.894;15.542;2022-07-10T06:37:19;17.00;99.90
11569;DHT22;5840;46.894;15.542;2022-07-10T06:39:47;17.00;99.90
11569;DHT22;5840;46.894;15.542;2022-07-10T06:42:16;17.00;99.90
11569;DHT22;5840;46.894;15.542;2022-07-10T06:44:44;17.10;99.90
11569;DHT22;5840;46.894;15.542;2022-07-10T06:47:12;17.10;99.90
11569;DHT22;5840;46.894;15.542;2022-07-10T06:49:57;17.20;99.90
11569;DHT22;5840;46.894;15.542;2022-07-10T06:52:24;17.20;99.90
11569;DHT22;5840;46.894;15.542;2022-07-10T06:54:52;17.30;99.90
11569;DHT22;5840;46.894;15.542;2022-07-10T06:57:21;17.30;99.90
11569;DHT22;5840;46.894;15.542;2022-07-10T06:59:47;17.30;99.90
11569;DHT22;5840;46.894;15.542;2022-07-10T07:02:14;17.30;99.90
11569;DHT22;5840;46.894;15.542;2022-07-10T07:04:41;17.30;99.90
11569;DHT22;5840;46.894;15.542;2022-07-10T07:07:10;17.30;99.90
11569;DHT22;5840;46.894;15.542;2022-07-10T07:09:37;17.30;99.90
11569;DHT22;5840;46.894;15.542;2022-07-10T07:12:04;17.30;99.90
11569;DHT22;5840;46.894;15.542;2022-07-10T07:14:33;17.30;99.90
11569;DHT22;5840;46.894;15.542;2022-07-10T07:17:00;17.30;99.90
11569;DHT22;5840;46.894;15.542;2022-07-10T07:19:31;17.40;99.90
11569;DHT22;5840;46.894;15.542;2022-07-10T07:22:18;17.30;99.90
11569;DHT22;5840;46.894;15.542;2022-07-10T07:25:03;17.40;99.90
11569;DHT22;5840;46.894;15.542;2022-07-10T07:27:30;17.40;99.90
11569;DHT22;5840;46.894;15.542;2022-07-10T07:30:01;17.40;99.90
11569;DHT22;5840;46.894;15.542;2022-07-10T07:32:28;17.50;99.90
11569;DHT22;5840;46.894;15.542;2022-07-10T07:34:55;17.60;99.90
11569;DHT22;5840;46.894;15.542;2022-07-10T07:37:22;17.70;99.90
11569;DHT22;5840;46.894;15.542;2022-07-10T07:39:49;17.80;99.90
11569;DHT22;5840;46.894;15.542;2022-07-10T07:42:16;17.80;99.90
11569;DHT22;5840;46.894;15.542;2022-07-10T07:44:43;17.90;99.90
11569;DHT22;5840;46.894;15.542;2022-07-10T07:47:11;18.00;99.90
11569;DHT22;5840;46.894;15.542;2022-07-10T07:49:38;18.30;99.90
11569;DHT22;5840;46.894;15.542;2022-07-10T07:52:05;18.90;99.90
11569;DHT22;5840;46.894;15.542;2022-07-10T07:54:33;19.40;99.90
11569;DHT22;5840;46.894;15.542;2022-07-10T07:57:00;19.90;99.90
11569;DHT22;5840;46.894;15.542;2022-07-10T07:59:27;20.30;99.90
11569;DHT22;5840;46.894;15.542;2022-07-10T08:01:54;20.50;99.90
11569;DHT22;5840;46.894;15.542;2022-07-10T08:04:22;20.40;99.90
11569;DHT22;5840;46.894;15.542;2022-07-10T08:06:49;20.30;99.90
11569;DHT22;5840;46.894;15.542;2022-07-10T08:09:17;20.10;99.90
11569;DHT22;5840;46.894;15.542;2022-07-10T08:11:45;20.00;99.90
11569;DHT22;5840;46.894;15.542;2022-07-10T08:14:12;20.20;99.90
11569;DHT22;5840;46.894;15.542;2022-07-10T08:16:39;20.20;99.90
11569;DHT22;5840;46.894;15.542;2022-07-10T08:19:07;20.40;99.90
11569;DHT22;5840;46.894;15.542;2022-07-10T08:21:35;20.70;99.90
11569;DHT22;5840;46.894;15.542;2022-07-10T08:24:02;21.10;99.90
11569;DHT22;5840;46.894;15.542;2022-07-10T08:26:30;21.20;99.90
11569;DHT22;5840;46.894;15.542;2022-07-10T08:28:57;21.50;99.90
11569;DHT22;5840;46.894;15.542;2022-07-10T08:31:24;21.70;99.90
11569;DHT22;5840;46.894;15.542;2022-07-10T08:33:51;21.80;99.90
11569;DHT22;5840;46.894;15.542;2022-07-10T08:36:18;21.90;99.90
11569;DHT22;5840;46.894;15.542;2022-07-10T08:38:46;22.00;99.90
11569;DHT22;5840;46.894;15.542;2022-07-10T08:41:13;22.10;99.90
11569;DHT22;5840;46.894;15.542;2022-07-10T08:43:41;21.80;99.90
11569;DHT22;5840;46.894;15.542;2022-07-10T08:46:08;21.80;99.90
11569;DHT22;5840;46.894;15.542;2022-07-10T08:48:39;21.90;99.90
11569;DHT22;5840;46.894;15.542;2022-07-10T08:51:10;22.00;99.90
11569;DHT22;5840;46.894;15.542;2022-07-10T08:53:43;22.20;99.90
11569;DHT22;5840;46.894;15.542;2022-07-10T08:56:12;22.30;99.90
11569;DHT22;5840;46.894;15.542;2022-07-10T08:58:39;22.60;99.90
11569;DHT22;5840;46.894;15.542;2022-07-10T09:01:06;22.60;99.90
11569;DHT22;5840;46.894;15.542;2022-07-10T09:03:33;22.60;99.90
11569;DHT22;5840;46.894;15.542;2022-07-10T09:06:00;22.90;99.90
11569;DHT22;5840;46.894;15.542;2022-07-10T09:08:28;23.10;99.90
11569;DHT22;5840;46.894;15.542;2022-07-10T09:11:16;23.30;99.90
11569;DHT22;5840;46.894;15.542;2022-07-10T09:13:50;23.60;99.90
11569;DHT22;5840;46.894;15.542;2022-07-10T09:16:24;23.80;99.90
11569;DHT22;5840;46.894;15.542;2022-07-10T09:18:51;23.90;99.90
11569;DHT22;5840;46.894;15.542;2022-07-10T09:21:18;23.90;99.90
11569;DHT22;5840;46.894;15.542;2022-07-10T09:23:45;23.90;99.90
11569;DHT22;5840;46.894;15.542;2022-07-10T09:26:12;23.90;99.90
11569;DHT22;5840;46.894;15.542;2022-07-10T09:28:40;23.90;99.90
11569;DHT22;5840;46.894;15.542;2022-07-10T09:31:07;23.80;99.90
11569;DHT22;5840;46.894;15.542;2022-07-10T09:33:34;23.90;99.90
11569;DHT22;5840;46.894;15.542;2022-07-10T09:36:06;23.90;99.90
11569;DHT22;5840;46.894;15.542;2022-07-10T09:38:54;23.90;99.90
11569;DHT22;5840;46.894;15.542;2022-07-10T09:41:25;23.80;99.90
11569;DHT22;5840;46.894;15.542;2022-07-10T09:43:54;23.80;99.90
11569;DHT22;5840;46.894;15.542;2022-07-10T09:46:23;23.90;99.90
11569;DHT22;5840;46.894;15.542;2022-07-10T09:49:08;23.80;99.00
11569;DHT22;5840;46.894;15.542;2022-07-10T09:51:37;23.90;99.90
11569;DHT22;5840;46.894;15.542;2022-07-10T09:54:06;24.00;99.90
11569;DHT22;5840;46.894;15.542;2022-07-10T09:56:39;24.10;99.70
11569;DHT22;5840;46.894;15.542;2022-07-10T09:59:11;24.40;99.90
11569;DHT22;5840;46.894;15.542;2022-07-10T10:01:43;24.60;98.70
11569;DHT22;5840;46.894;15.542;2022-07-10T10:04:11;24.80;98.90
11569;DHT22;5840;46.894;15.542;2022-07-10T10:06:40;25.00;98.50
11569;DHT22;5840;46.894;15.542;2022-07-10T10:09:11;25.10;98.40
11569;DHT22;5840;46.894;15.542;2022-07-10T10:11:40;25.20;96.10
11569;DHT22;5840;46.894;15.542;2022-07-10T10:14:12;25.10;97.30
11569;DHT22;5840;46.894;15.542;2022-07-10T10:16:43;25.10;98.10
11569;DHT22;5840;46.894;15.542;2022-07-10T10:19:13;25.10;97.90
11569;DHT22;5840;46.894;15.542;2022-07-10T10:21:59;25.10;94.80
11569;DHT22;5840;46.894;15.542;2022-07-10T10:24:31;25.20;96.90
11569;DHT22;5840;46.894;15.542;2022-07-10T10:26:58;25.20;97.20
11569;DHT22;5840;46.894;15.542;2022-07-10T10:29:27;25.20;97.80
11569;DHT22;5840;46.894;15.542;2022-07-10T10:31:55;25.40;98.20
11569;DHT22;5840;46.894;15.542;2022-07-10T10:34:41;25.50;99.30
11569;DHT22;5840;46.894;15.542;2022-07-10T10:37:32;25.60;97.80
11569;DHT22;5840;46.894;15.542;2022-07-10T10:40:00;25.80;96.20
11569;DHT22;5840;46.894;15.542;2022-07-10T10:42:34;26.10;99.40
11569;DHT22;5840;46.894;15.542;2022-07-10T10:45:25;26.30;96.10
11569;DHT22;5840;46.894;15.542;2022-07-10T10:48:00;26.10;91.10
11569;DHT22;5840;46.894;15.542;2022-07-10T10:50:37;26.10;91.40
11569;DHT22;5840;46.894;15.542;2022-07-10T10:53:04;26.00;92.60
11569;DHT22;5840;46.894;15.542;2022-07-10T10:55:31;26.00;85.80
11569;DHT22;5840;46.894;15.542;2022-07-10T10:58:14;26.20;90.40
11569;DHT22;5840;46.894;15.542;2022-07-10T11:00:44;26.60;90.40
11569;DHT22;5840;46.894;15.542;2022-07-10T11:03:15;26.50;87.40
11569;DHT22;5840;46.894;15.542;2022-07-10T11:05:44;26.30;85.80
11569;DHT22;5840;46.894;15.542;2022-07-10T11:08:12;26.40;90.50
11569;DHT22;5840;46.894;15.542;2022-07-10T11:10:40;26.20;86.70
11569;DHT22;5840;46.894;15.542;2022-07-10T11:13:09;26.00;90.90
11569;DHT22;5840;46.894;15.542;2022-07-10T11:15:37;25.70;87.70
11569;DHT22;5840;46.894;15.542;2022-07-10T11:18:07;25.40;85.50
11569;DHT22;5840;46.894;15.542;2022-07-10T11:20:36;25.20;88.90
11569;DHT22;5840;46.894;15.542;2022-07-10T11:23:35;25.10;92.50
11569;DHT22;5840;46.894;15.542;2022-07-10T11:26:10;25.00;92.30
11569;DHT22;5840;46.894;15.542;2022-07-10T11:28:49;24.90;92.20
11569;DHT22;5840;46.894;15.542;2022-07-10T11:31:17;25.00;93.90
11569;DHT22;5840;46.894;15.542;2022-07-10T11:33:46;25.40;92.50
11569;DHT22;5840;46.894;15.542;2022-07-10T11:36:14;25.90;90.70
11569;DHT22;5840;46.894;15.542;2022-07-10T11:38:43;26.20;89.50
11569;DHT22;5840;46.894;15.542;2022-07-10T11:41:17;26.60;91.70
11569;DHT22;5840;46.894;15.542;2022-07-10T11:43:49;27.00;89.80
11569;DHT22;5840;46.894;15.542;2022-07-10T11:46:16;27.30;87.40
11569;DHT22;5840;46.894;15.542;2022-07-10T11:48:45;27.50;84.40
11569;DHT22;5840;46.894;15.542;2022-07-10T11:51:23;27.60;87.80
11569;DHT22;5840;46.894;15.542;2022-07-10T11:53:59;27.70;90.00
11569;DHT22;5840;46.894;15.542;2022-07-10T11:56:28;27.80;83.50
11569;DHT22;5840;46.894;15.542;2022-07-10T11:58:56;27.90;86.30
11569;DHT22;5840;46.894;15.542;2022-07-10T12:01:24;27.80;82.60
11569;DHT22;5840;46.894;15.542;2022-07-10T12:03:57;27.70;84.30
11569;DHT22;5840;46.894;15.542;2022-07-10T12:06:25;27.50;85.00
11569;DHT22;5840;46.894;15.542;2022-07-10T12:08:52;27.10;88.00
11569;DHT22;5840;46.894;15.542;2022-07-10T12:11:20;27.00;90.30
11569;DHT22;5840;46.894;15.542;2022-07-10T12:13:50;27.00;89.60
11569;DHT22;5840;46.894;15.542;2022-07-10T12:16:19;27.30;87.50
11569;DHT22;5840;46.894;15.542;2022-07-10T12:18:48;27.50;88.50
11569;DHT22;5840;46.894;15.542;2022-07-10T12:21:16;27.40;88.40
11569;DHT22;5840;46.894;15.542;2022-07-10T12:23:45;27.30;88.30
11569;DHT22;5840;46.894;15.542;2022-07-10T12:26:12;27.10;87.50
11569;DHT22;5840;46.894;15.542;2022-07-10T12:28:50;26.80;87.70
11569;DHT22;5840;46.894;15.542;2022-07-10T12:31:25;26.40;88.90
11569;DHT22;5840;46.894;15.542;2022-07-10T12:33:53;26.30;89.90
11569;DHT22;5840;46.894;15.542;2022-07-10T12:36:25;26.10;90.40
11569;DHT22;5840;46.894;15.542;2022-07-10T12:38:56;26.00;88.30
11569;DHT22;5840;46.894;15.542;2022-07-10T12:41:24;25.80;89.20
11569;DHT22;5840;46.894;15.542;2022-07-10T12:43:52;25.50;90.70
11569;DHT22;5840;46.894;15.542;2022-07-10T12:46:21;25.20;89.80
11569;DHT22;5840;46.894;15.542;2022-07-10T12:49:02;24.90;89.50
11569;DHT22;5840;46.894;15.542;2022-07-10T12:51:31;24.60;90.00
11569;DHT22;5840;46.894;15.542;2022-07-10T12:53:58;24.30;90.10
11569;DHT22;5840;46.894;15.542;2022-07-10T12:56:33;24.20;90.30
11569;DHT22;5840;46.894;15.542;2022-07-10T12:59:02;24.00;91.70
11569;DHT22;5840;46.894;15.542;2022-07-10T13:01:39;24.00;92.00
11569;DHT22;5840;46.894;15.542;2022-07-10T13:04:06;24.30;95.00
11569;DHT22;5840;46.894;15.542;2022-07-10T13:06:37;24.80;95.70
11569;DHT22;5840;46.894;15.542;2022-07-10T13:09:18;25.00;92.70
11569;DHT22;5840;46.894;15.542;2022-07-10T13:11:46;25.10;93.80
11569;DHT22;5840;46.894;15.542;2022-07-10T13:14:12;24.90;94.50
11569;DHT22;5840;46.894;15.542;2022-07-10T13:16:39;24.70;92.70
11569;DHT22;5840;46.894;15.542;2022-07-10T13:19:06;24.30;92.30
11569;DHT22;5840;46.894;15.542;2022-07-10T13:21:33;24.00;92.90
11569;DHT22;5840;46.894;15.542;2022-07-10T13:24:03;23.80;93.70
11569;DHT22;5840;46.894;15.542;2022-07-10T13:26:32;23.50;93.90
11569;DHT22;5840;46.894;15.542;2022-07-10T13:28:59;23.40;94.10
11569;DHT22;5840;46.894;15.542;2022-07-10T13:31:26;23.30;94.80
11569;DHT22;5840;46.894;15.542;2022-07-10T13:33:53;23.50;94.30
11569;DHT22;5840;46.894;15.542;2022-07-10T13:36:20;23.90;94.50
11569;DHT22;5840;46.894;15.542;2022-07-10T13:38:47;24.20;92.70
11569;DHT22;5840;46.894;15.542;2022-07-10T13:41:16;24.20;93.20
11569;DHT22;5840;46.894;15.542;2022-07-10T13:43:43;24.10;93.60
11569;DHT22;5840;46.894;15.542;2022-07-10T13:46:10;23.80;92.60
11569;DHT22;5840;46.894;15.542;2022-07-10T13:48:37;23.60;92.90
11569;DHT22;5840;46.894;15.542;2022-07-10T13:51:04;23.50;92.90
11569;DHT22;5840;46.894;15.542;2022-07-10T13:53:31;23.40;93.40
11569;DHT22;5840;46.894;15.542;2022-07-10T13:55:58;23.30;93.70
11569;DHT22;5840;46.894;15.542;2022-07-10T13:58:27;23.20;93.20
11569;DHT22;5840;46.894;15.542;2022-07-10T14:00:54;23.20;94.60
11569;DHT22;5840;46.894;15.542;2022-07-10T14:03:21;23.20;94.70
11569;DHT22;5840;46.894;15.542;2022-07-10T14:05:48;23.20;94.80
11569;DHT22;5840;46.894;15.542;2022-07-10T14:08:15;23.20;95.40
11569;DHT22;5840;46.894;15.542;2022-07-10T14:10:42;23.30;94.60
11569;DHT22;5840;46.894;15.542;2022-07-10T14:13:09;23.50;93.90
11569;DHT22;5840;46.894;15.542;2022-07-10T14:15:37;23.70;93.80
11569;DHT22;5840;46.894;15.542;2022-07-10T14:18:06;24.00;94.20
11569;DHT22;5840;46.894;15.542;2022-07-10T14:20:32;24.10;92.90
11569;DHT22;5840;46.894;15.542;2022-07-10T14:23:14;24.10;91.40
11569;DHT22;5840;46.894;15.542;2022-07-10T14:25:40;24.10;91.60
11569;DHT22;5840;46.894;15.542;2022-07-10T14:28:07;24.10;93.00
11569;DHT22;5840;46.894;15.542;2022-07-10T14:30:34;24.10;91.50
11569;DHT22;5840;46.894;15.542;2022-07-10T14:33:03;24.00;92.80
11569;DHT22;5840;46.894;15.542;2022-07-10T14:35:29;24.00;93.40
11569;DHT22;5840;46.894;15.542;2022-07-10T14:37:56;24.00;93.10
11569;DHT22;5840;46.894;15.542;2022-07-10T14:40:23;24.10;93.40
11569;DHT22;5840;46.894;15.542;2022-07-10T14:42:50;24.30;91.10
11569;DHT22;5840;46.894;15.542;2022-07-10T14:45:17;24.40;86.20
11569;DHT22;5840;46.894;15.542;2022-07-10T14:47:44;24.50;86.90
11569;DHT22;5840;46.894;15.542;2022-07-10T14:50:12;24.50;89.90
11569;DHT22;5840;46.894;15.542;2022-07-10T14:52:41;24.50;88.10
11569;DHT22;5840;46.894;15.542;2022-07-10T14:55:08;24.30;87.90
11569;DHT22;5840;46.894;15.542;2022-07-10T14:57:35;24.20;88.40
11569;DHT22;5840;46.894;15.542;2022-07-10T15:00:03;24.10;88.10
11569;DHT22;5840;46.894;15.542;2022-07-10T15:02:30;24.10;90.30
11569;DHT22;5840;46.894;15.542;2022-07-10T15:04:57;24.00;90.30
11569;DHT22;5840;46.894;15.542;2022-07-10T15:07:25;23.90;90.90
11569;DHT22;5840;46.894;15.542;2022-07-10T15:09:52;23.90;89.90
11569;DHT22;5840;46.894;15.542;2022-07-10T15:12:19;23.70;87.30
11569;DHT22;5840;46.894;15.542;2022-07-10T15:14:46;23.60;86.90
11569;DHT22;5840;46.894;15.542;2022-07-10T15:17:13;23.70;83.40
11569;DHT22;5840;46.894;15.542;2022-07-10T15:19:40;23.80;85.40
11569;DHT22;5840;46.894;15.542;2022-07-10T15:22:07;23.70;88.70
11569;DHT22;5840;46.894;15.542;2022-07-10T15:24:35;23.60;87.00
11569;DHT22;5840;46.894;15.542;2022-07-10T15:27:03;23.50;87.90
11569;DHT22;5840;46.894;15.542;2022-07-10T15:29:30;23.50;88.00
11569;DHT22;5840;46.894;15.542;2022-07-10T15:31:57;23.60;83.40
11569;DHT22;5840;46.894;15.542;2022-07-10T15:34:23;23.70;83.50
11569;DHT22;5840;46.894;15.542;2022-07-10T15:36:50;23.80;86.50
11569;DHT22;5840;46.894;15.542;2022-07-10T15:39:18;23.80;86.10